sensor_id;sensor_type;location;lat;lon;timestamp;P1;durP1;ratioP1;P2;durP2;ratioP2
34200;SDS011;20469;55.638;37.670;2023-11-19T00:00:10;23.47;;;9.90;;
34200;SDS011;20469;55.638;37.670;2023-11-19T00:02:39;22.77;;;10.03;;
34200;SDS011;20469;55.638;37.670;2023-11-19T00:05:08;21.70;;;10.30;;
34200;SDS011;20469;55.638;37.670;2023-11-19T00:07:39;18.53;;;8.93;;
34200;SDS011;20469;55.638;37.670;2023-11-19T00:10:12;21.80;;;9.43;;
34200;SDS011;20469;55.638;37.670;2023-11-19T00:12:42;20.17;;;10.43;;
34200;SDS011;20469;55.638;37.670;2023-11-19T00:15:11;23.65;;;10.35;;
34200;SDS011;20469;55.638;37.670;2023-11-19T00:17:40;17.20;;;10.10;;
34200;SDS011;20469;55.638;37.670;2023-11-19T00:20:12;17.08;;;9.65;;
34200;SDS011;20469;55.638;37.670;2023-11-19T00:22:40;22.97;;;9.87;;
34200;SDS011;20469;55.638;37.670;2023-11-19T00:25:11;22.80;;;10.67;;
34200;SDS011;20469;55.638;37.670;2023-11-19T00:27:39;22.10;;;12.00;;
34200;SDS011;20469;55.638;37.670;2023-11-19T00:30:07;21.90;;;10.00;;
34200;SDS011;20469;55.638;37.670;2023-11-19T00:32:35;25.17;;;11.23;;
34200;SDS011;20469;55.638;37.670;2023-11-19T00:35:08;23.20;;;10.35;;
34200;SDS011;20469;55.638;37.670;2023-11-19T00:37:41;21.60;;;10.57;;
34200;SDS011;20469;55.638;37.670;2023-11-19T00:40:09;23.20;;;10.97;;
34200;SDS011;20469;55.638;37.670;2023-11-19T00:42:38;22.88;;;10.65;;
34200;SDS011;20469;55.638;37.670;2023-11-19T00:45:05;16.45;;;9.98;;
34200;SDS011;20469;55.638;37.670;2023-11-19T00:47:37;19.15;;;10.65;;
34200;SDS011;20469;55.638;37.670;2023-11-19T00:50:05;22.80;;;11.60;;
34200;SDS011;20469;55.638;37.670;2023-11-19T00:52:33;27.83;;;12.10;;
34200;SDS011;20469;55.638;37.670;2023-11-19T00:55:00;24.35;;;12.98;;
34200;SDS011;20469;55.638;37.670;2023-11-19T00:57:29;24.30;;;12.77;;
34200;SDS011;20469;55.638;37.670;2023-11-19T00:59:59;23.40;;;12.67;;
34200;SDS011;20469;55.638;37.670;2023-11-19T01:02:29;29.30;;;14.80;;
34200;SDS011;20469;55.638;37.670;2023-11-19T01:04:57;25.53;;;13.33;;
34200;SDS011;20469;55.638;37.670;2023-11-19T01:07:25;26.07;;;13.23;;
34200;SDS011;20469;55.638;37.670;2023-11-19T01:09:53;29.50;;;14.60;;
34200;SDS011;20469;55.638;37.670;2023-11-19T01:12:21;24.50;;;13.37;;
34200;SDS011;20469;55.638;37.670;2023-11-19T01:14:49;22.63;;;13.50;;
34200;SDS011;20469;55.638;37.670;2023-11-19T01:17:17;26.53;;;12.93;;
34200;SDS011;20469;55.638;37.670;2023-11-19T01:19:44;23.33;;;12.37;;
34200;SDS011;20469;55.638;37.670;2023-11-19T01:22:12;25.90;;;14.17;;
34200;SDS011;20469;55.638;37.670;2023-11-19T01:24:40;22.55;;;12.82;;
34200;SDS011;20469;55.638;37.670;2023-11-19T01:27:07;22.43;;;12.97;;
34200;SDS011;20469;55.638;37.670;2023-11-19T01:29:35;26.20;;;12.50;;
34200;SDS011;20469;55.638;37.670;2023-11-19T01:32:04;21.30;;;12.20;;
34200;SDS011;20469;55.638;37.670;2023-11-19T01:34:32;23.03;;;12.27;;
34200;SDS011;20469;55.638;37.670;2023-11-19T01:37:00;24.87;;;12.10;;
34200;SDS011;20469;55.638;37.670;2023-11-19T01:39:28;26.85;;;12.48;;
34200;SDS011;20469;55.638;37.670;2023-11-19T01:41:55;25.37;;;12.00;;
34200;SDS011;20469;55.638;37.670;2023-11-19T01:44:23;23.73;;;12.03;;
34200;SDS011;20469;55.638;37.670;2023-11-19T01:46:51;24.33;;;12.20;;
34200;SDS011;20469;55.638;37.670;2023-11-19T01:49:19;26.40;;;12.00;;
34200;SDS011;20469;55.638;37.670;2023-11-19T01:51:47;22.83;;;12.23;;
34200;SDS011;20469;55.638;37.670;2023-11-19T01:54:15;20.10;;;11.87;;
34200;SDS011;20469;55.638;37.670;2023-11-19T01:56:43;20.90;;;11.40;;
34200;SDS011;20469;55.638;37.670;2023-11-19T01:59:11;19.57;;;10.47;;
34200;SDS011;20469;55.638;37.670;2023-11-19T02:01:40;20.53;;;11.53;;
34200;SDS011;20469;55.638;37.670;2023-11-19T02:04:09;20.27;;;11.53;;
34200;SDS011;20469;55.638;37.670;2023-11-19T02:06:37;20.70;;;12.13;;
34200;SDS011;20469;55.638;37.670;2023-11-19T02:09:07;20.17;;;11.07;;
34200;SDS011;20469;55.638;37.670;2023-11-19T02:11:35;18.20;;;11.00;;
34200;SDS011;20469;55.638;37.670;2023-11-19T02:14:02;22.40;;;11.43;;
34200;SDS011;20469;55.638;37.670;2023-11-19T02:16:31;20.80;;;11.57;;
34200;SDS011;20469;55.638;37.670;2023-11-19T02:18:59;18.67;;;10.47;;
34200;SDS011;20469;55.638;37.670;2023-11-19T02:21:46;20.87;;;11.27;;
34200;SDS011;20469;55.638;37.670;2023-11-19T02:24:14;21.17;;;11.53;;
34200;SDS011;20469;55.638;37.670;2023-11-19T02:27:26;21.10;;;11.53;;
34200;SDS011;20469;55.638;37.670;2023-11-19T02:29:33;24.13;;;11.53;;
34200;SDS011;20469;55.638;37.670;2023-11-19T02:32:01;18.27;;;11.07;;
34200;SDS011;20469;55.638;37.670;2023-11-19T02:34:30;22.20;;;12.20;;
34200;SDS011;20469;55.638;37.670;2023-11-19T02:36:58;22.33;;;13.13;;
34200;SDS011;20469;55.638;37.670;2023-11-19T02:39:25;25.73;;;13.03;;
34200;SDS011;20469;55.638;37.670;2023-11-19T02:41:53;28.23;;;13.33;;
34200;SDS011;20469;55.638;37.670;2023-11-19T02:44:21;25.17;;;13.53;;
34200;SDS011;20469;55.638;37.670;2023-11-19T02:46:49;24.70;;;13.43;;
34200;SDS011;20469;55.638;37.670;2023-11-19T02:49:18;25.10;;;12.43;;
34200;SDS011;20469;55.638;37.670;2023-11-19T02:51:45;25.03;;;12.87;;
34200;SDS011;20469;55.638;37.670;2023-11-19T02:54:13;28.53;;;13.70;;
34200;SDS011;20469;55.638;37.670;2023-11-19T02:56:44;22.87;;;13.60;;
34200;SDS011;20469;55.638;37.670;2023-11-19T02:59:14;27.67;;;13.47;;
34200;SDS011;20469;55.638;37.670;2023-11-19T03:01:53;30.20;;;14.20;;
34200;SDS011;20469;55.638;37.670;2023-11-19T03:04:21;27.07;;;14.30;;
34200;SDS011;20469;55.638;37.670;2023-11-19T03:06:49;33.03;;;16.33;;
34200;SDS011;20469;55.638;37.670;2023-11-19T03:09:17;23.37;;;13.17;;
34200;SDS011;20469;55.638;37.670;2023-11-19T03:11:45;24.77;;;14.37;;
34200;SDS011;20469;55.638;37.670;2023-11-19T03:14:12;24.40;;;13.30;;
34200;SDS011;20469;55.638;37.670;2023-11-19T03:16:40;27.33;;;13.67;;
34200;SDS011;20469;55.638;37.670;2023-11-19T03:19:08;25.70;;;13.67;;
34200;SDS011;20469;55.638;37.670;2023-11-19T03:21:36;25.20;;;13.50;;
34200;SDS011;20469;55.638;37.670;2023-11-19T03:24:04;23.97;;;13.27;;
34200;SDS011;20469;55.638;37.670;2023-11-19T03:26:31;23.83;;;13.20;;
34200;SDS011;20469;55.638;37.670;2023-11-19T03:29:00;22.10;;;12.77;;
34200;SDS011;20469;55.638;37.670;2023-11-19T03:31:28;22.10;;;13.07;;
34200;SDS011;20469;55.638;37.670;2023-11-19T03:33:56;26.07;;;13.60;;
34200;SDS011;20469;55.638;37.670;2023-11-19T03:36:25;28.20;;;14.20;;
34200;SDS011;20469;55.638;37.670;2023-11-19T03:38:53;25.23;;;13.67;;
34200;SDS011;20469;55.638;37.670;2023-11-19T03:41:20;26.23;;;14.67;;
34200;SDS011;20469;55.638;37.670;2023-11-19T03:43:48;26.10;;;14.67;;
34200;SDS011;20469;55.638;37.670;2023-11-19T03:46:18;31.00;;;15.07;;
34200;SDS011;20469;55.638;37.670;2023-11-19T03:48:47;27.77;;;14.33;;
34200;SDS011;20469;55.638;37.670;2023-11-19T03:51:15;27.00;;;14.40;;
34200;SDS011;20469;55.638;37.670;2023-11-19T03:53:44;28.47;;;14.20;;
34200;SDS011;20469;55.638;37.670;2023-11-19T03:56:12;26.80;;;14.77;;
34200;SDS011;20469;55.638;37.670;2023-11-19T03:58:40;25.40;;;14.20;;
34200;SDS011;20469;55.638;37.670;2023-11-19T04:01:10;24.60;;;14.23;;
34200;SDS011;20469;55.638;37.670;2023-11-19T04:03:41;28.37;;;14.63;;
34200;SDS011;20469;55.638;37.670;2023-11-19T04:06:12;26.20;;;15.23;;
34200;SDS011;20469;55.638;37.670;2023-11-19T04:08:40;26.37;;;13.73;;
34200;SDS011;20469;55.638;37.670;2023-11-19T04:11:08;25.70;;;13.60;;
34200;SDS011;20469;55.638;37.670;2023-11-19T04:13:35;26.67;;;13.93;;
34200;SDS011;20469;55.638;37.670;2023-11-19T04:16:03;29.90;;;15.13;;
34200;SDS011;20469;55.638;37.670;2023-11-19T04:18:31;27.90;;;14.63;;
34200;SDS011;20469;55.638;37.670;2023-11-19T04:20:59;29.77;;;14.90;;
34200;SDS011;20469;55.638;37.670;2023-11-19T04:23:26;25.90;;;14.40;;
34200;SDS011;20469;55.638;37.670;2023-11-19T04:25:54;23.97;;;14.93;;
34200;SDS011;20469;55.638;37.670;2023-11-19T04:28:36;28.73;;;14.52;;
34200;SDS011;20469;55.638;37.670;2023-11-19T04:31:04;26.80;;;14.43;;
34200;SDS011;20469;55.638;37.670;2023-11-19T04:33:32;27.50;;;15.00;;
34200;SDS011;20469;55.638;37.670;2023-11-19T04:36:00;25.87;;;14.83;;
34200;SDS011;20469;55.638;37.670;2023-11-19T04:38:29;26.57;;;14.23;;
34200;SDS011;20469;55.638;37.670;2023-11-19T04:40:57;28.03;;;14.83;;
34200;SDS011;20469;55.638;37.670;2023-11-19T04:43:24;30.07;;;14.33;;
34200;SDS011;20469;55.638;37.670;2023-11-19T04:45:52;27.10;;;14.70;;
34200;SDS011;20469;55.638;37.670;2023-11-19T04:48:20;25.40;;;14.37;;
34200;SDS011;20469;55.638;37.670;2023-11-19T04:50:48;24.50;;;13.70;;
34200;SDS011;20469;55.638;37.670;2023-11-19T04:53:17;28.63;;;14.97;;
34200;SDS011;20469;55.638;37.670;2023-11-19T04:55:45;29.03;;;14.27;;
34200;SDS011;20469;55.638;37.670;2023-11-19T04:58:13;34.10;;;17.97;;
34200;SDS011;20469;55.638;37.670;2023-11-19T05:00:40;24.53;;;14.47;;
34200;SDS011;20469;55.638;37.670;2023-11-19T05:03:08;27.90;;;13.97;;
34200;SDS011;20469;55.638;37.670;2023-11-19T05:05:35;26.90;;;15.33;;
34200;SDS011;20469;55.638;37.670;2023-11-19T05:08:03;27.50;;;14.77;;
34200;SDS011;20469;55.638;37.670;2023-11-19T05:10:31;30.63;;;15.77;;
34200;SDS011;20469;55.638;37.670;2023-11-19T05:12:59;28.20;;;15.10;;
34200;SDS011;20469;55.638;37.670;2023-11-19T05:15:29;31.40;;;15.17;;
34200;SDS011;20469;55.638;37.670;2023-11-19T05:17:57;25.50;;;15.27;;
34200;SDS011;20469;55.638;37.670;2023-11-19T05:20:24;31.70;;;16.33;;
34200;SDS011;20469;55.638;37.670;2023-11-19T05:22:52;30.63;;;15.85;;
34200;SDS011;20469;55.638;37.670;2023-11-19T05:25:19;28.53;;;15.60;;
34200;SDS011;20469;55.638;37.670;2023-11-19T05:27:47;30.13;;;15.67;;
34200;SDS011;20469;55.638;37.670;2023-11-19T05:30:15;28.92;;;15.73;;
34200;SDS011;20469;55.638;37.670;2023-11-19T05:32:42;29.57;;;16.30;;
34200;SDS011;20469;55.638;37.670;2023-11-19T05:35:10;30.63;;;16.17;;
34200;SDS011;20469;55.638;37.670;2023-11-19T05:37:38;28.47;;;15.13;;
34200;SDS011;20469;55.638;37.670;2023-11-19T05:40:06;28.97;;;15.90;;
34200;SDS011;20469;55.638;37.670;2023-11-19T05:42:41;33.23;;;15.63;;
34200;SDS011;20469;55.638;37.670;2023-11-19T05:45:10;40.83;;;16.30;;
34200;SDS011;20469;55.638;37.670;2023-11-19T05:47:38;30.33;;;15.73;;
34200;SDS011;20469;55.638;37.670;2023-11-19T05:50:06;35.37;;;16.90;;
34200;SDS011;20469;55.638;37.670;2023-11-19T05:52:35;34.67;;;17.27;;
34200;SDS011;20469;55.638;37.670;2023-11-19T05:55:03;28.75;;;17.15;;
34200;SDS011;20469;55.638;37.670;2023-11-19T05:57:32;32.05;;;16.63;;
34200;SDS011;20469;55.638;37.670;2023-11-19T06:00:12;29.88;;;16.75;;
34200;SDS011;20469;55.638;37.670;2023-11-19T06:02:42;29.08;;;16.15;;
34200;SDS011;20469;55.638;37.670;2023-11-19T06:05:10;30.95;;;16.75;;
34200;SDS011;20469;55.638;37.670;2023-11-19T06:07:39;31.50;;;15.82;;
34200;SDS011;20469;55.638;37.670;2023-11-19T06:10:08;30.52;;;15.88;;
34200;SDS011;20469;55.638;37.670;2023-11-19T06:12:36;26.05;;;15.18;;
34200;SDS011;20469;55.638;37.670;2023-11-19T06:15:05;28.33;;;15.80;;
34200;SDS011;20469;55.638;37.670;2023-11-19T06:17:35;33.58;;;16.60;;
34200;SDS011;20469;55.638;37.670;2023-11-19T06:20:03;27.13;;;15.82;;
34200;SDS011;20469;55.638;37.670;2023-11-19T06:22:31;26.65;;;15.20;;
34200;SDS011;20469;55.638;37.670;2023-11-19T06:24:59;25.27;;;14.82;;
34200;SDS011;20469;55.638;37.670;2023-11-19T06:27:29;28.05;;;14.60;;
34200;SDS011;20469;55.638;37.670;2023-11-19T06:29:57;23.08;;;14.20;;
34200;SDS011;20469;55.638;37.670;2023-11-19T06:32:25;31.00;;;15.40;;
34200;SDS011;20469;55.638;37.670;2023-11-19T06:34:52;24.08;;;13.75;;
34200;SDS011;20469;55.638;37.670;2023-11-19T06:37:20;24.25;;;13.30;;
34200;SDS011;20469;55.638;37.670;2023-11-19T06:39:48;20.73;;;12.00;;
34200;SDS011;20469;55.638;37.670;2023-11-19T06:42:16;23.08;;;12.88;;
34200;SDS011;20469;55.638;37.670;2023-11-19T06:44:44;19.05;;;12.10;;
34200;SDS011;20469;55.638;37.670;2023-11-19T06:47:11;22.23;;;12.75;;
34200;SDS011;20469;55.638;37.670;2023-11-19T06:49:39;19.35;;;12.18;;
34200;SDS011;20469;55.638;37.670;2023-11-19T06:52:07;18.50;;;12.50;;
34200;SDS011;20469;55.638;37.670;2023-11-19T06:54:34;25.17;;;13.75;;
34200;SDS011;20469;55.638;37.670;2023-11-19T06:57:03;23.00;;;12.68;;
34200;SDS011;20469;55.638;37.670;2023-11-19T06:59:31;22.33;;;12.65;;
34200;SDS011;20469;55.638;37.670;2023-11-19T07:01:59;19.88;;;13.43;;
34200;SDS011;20469;55.638;37.670;2023-11-19T07:04:27;20.58;;;13.30;;
34200;SDS011;20469;55.638;37.670;2023-11-19T07:06:54;24.27;;;14.02;;
34200;SDS011;20469;55.638;37.670;2023-11-19T07:09:22;25.95;;;13.43;;
34200;SDS011;20469;55.638;37.670;2023-11-19T07:11:49;21.98;;;12.88;;
34200;SDS011;20469;55.638;37.670;2023-11-19T07:14:18;23.90;;;14.07;;
34200;SDS011;20469;55.638;37.670;2023-11-19T07:16:46;29.08;;;14.80;;
34200;SDS011;20469;55.638;37.670;2023-11-19T07:19:14;25.88;;;14.30;;
34200;SDS011;20469;55.638;37.670;2023-11-19T07:21:41;25.35;;;15.00;;
34200;SDS011;20469;55.638;37.670;2023-11-19T07:24:10;27.00;;;15.15;;
34200;SDS011;20469;55.638;37.670;2023-11-19T07:26:42;20.63;;;13.70;;
34200;SDS011;20469;55.638;37.670;2023-11-19T07:29:10;23.80;;;14.60;;
34200;SDS011;20469;55.638;37.670;2023-11-19T07:31:38;24.27;;;15.45;;
34200;SDS011;20469;55.638;37.670;2023-11-19T07:34:05;29.13;;;15.80;;
34200;SDS011;20469;55.638;37.670;2023-11-19T07:36:35;23.90;;;14.95;;
34200;SDS011;20469;55.638;37.670;2023-11-19T07:39:03;42.97;;;16.30;;
34200;SDS011;20469;55.638;37.670;2023-11-19T07:41:31;32.72;;;15.77;;
34200;SDS011;20469;55.638;37.670;2023-11-19T07:44:00;26.75;;;14.10;;
34200;SDS011;20469;55.638;37.670;2023-11-19T07:46:28;21.65;;;13.70;;
34200;SDS011;20469;55.638;37.670;2023-11-19T07:48:56;46.33;;;16.05;;
34200;SDS011;20469;55.638;37.670;2023-11-19T07:51:24;18.52;;;11.35;;
34200;SDS011;20469;55.638;37.670;2023-11-19T07:53:52;19.42;;;12.73;;
34200;SDS011;20469;55.638;37.670;2023-11-19T07:56:20;18.80;;;12.15;;
34200;SDS011;20469;55.638;37.670;2023-11-19T07:58:47;17.80;;;11.30;;
34200;SDS011;20469;55.638;37.670;2023-11-19T08:01:15;19.85;;;10.27;;
34200;SDS011;20469;55.638;37.670;2023-11-19T08:03:44;45.45;;;12.75;;
34200;SDS011;20469;55.638;37.670;2023-11-19T08:06:15;11.90;;;7.72;;
34200;SDS011;20469;55.638;37.670;2023-11-19T08:08:42;13.93;;;7.57;;
34200;SDS011;20469;55.638;37.670;2023-11-19T08:11:10;12.43;;;7.63;;
34200;SDS011;20469;55.638;37.670;2023-11-19T08:13:37;13.93;;;8.02;;
34200;SDS011;20469;55.638;37.670;2023-11-19T08:16:05;14.48;;;9.02;;
34200;SDS011;20469;55.638;37.670;2023-11-19T08:18:33;14.35;;;8.95;;
34200;SDS011;20469;55.638;37.670;2023-11-19T08:21:01;20.52;;;10.07;;
34200;SDS011;20469;55.638;37.670;2023-11-19T08:23:31;15.73;;;9.20;;
34200;SDS011;20469;55.638;37.670;2023-11-19T08:25:59;16.23;;;9.98;;
34200;SDS011;20469;55.638;37.670;2023-11-19T08:28:26;14.75;;;8.93;;
34200;SDS011;20469;55.638;37.670;2023-11-19T08:30:54;12.57;;;8.52;;
34200;SDS011;20469;55.638;37.670;2023-11-19T08:33:22;17.75;;;8.95;;
34200;SDS011;20469;55.638;37.670;2023-11-19T08:35:49;15.60;;;8.85;;
34200;SDS011;20469;55.638;37.670;2023-11-19T08:38:17;19.63;;;9.68;;
34200;SDS011;20469;55.638;37.670;2023-11-19T08:40:57;17.30;;;9.60;;
34200;SDS011;20469;55.638;37.670;2023-11-19T08:43:27;16.77;;;9.02;;
34200;SDS011;20469;55.638;37.670;2023-11-19T08:45:54;18.02;;;9.52;;
34200;SDS011;20469;55.638;37.670;2023-11-19T08:48:22;18.08;;;10.10;;
34200;SDS011;20469;55.638;37.670;2023-11-19T08:50:50;16.92;;;10.05;;
34200;SDS011;20469;55.638;37.670;2023-11-19T08:53:17;14.43;;;9.32;;
34200;SDS011;20469;55.638;37.670;2023-11-19T08:55:45;14.88;;;9.60;;
34200;SDS011;20469;55.638;37.670;2023-11-19T08:58:13;20.48;;;9.85;;
34200;SDS011;20469;55.638;37.670;2023-11-19T09:00:40;18.23;;;10.02;;
34200;SDS011;20469;55.638;37.670;2023-11-19T09:03:08;16.67;;;9.57;;
34200;SDS011;20469;55.638;37.670;2023-11-19T09:05:36;16.73;;;9.32;;
34200;SDS011;20469;55.638;37.670;2023-11-19T09:08:05;13.95;;;7.80;;
34200;SDS011;20469;55.638;37.670;2023-11-19T09:10:33;13.77;;;7.75;;
34200;SDS011;20469;55.638;37.670;2023-11-19T09:13:01;10.48;;;6.53;;
34200;SDS011;20469;55.638;37.670;2023-11-19T09:15:30;9.90;;;5.68;;
34200;SDS011;20469;55.638;37.670;2023-11-19T09:17:57;12.50;;;5.32;;
34200;SDS011;20469;55.638;37.670;2023-11-19T09:20:25;10.13;;;5.70;;
34200;SDS011;20469;55.638;37.670;2023-11-19T09:22:53;12.18;;;6.22;;
34200;SDS011;20469;55.638;37.670;2023-11-19T09:25:21;9.45;;;5.88;;
34200;SDS011;20469;55.638;37.670;2023-11-19T09:27:48;7.90;;;5.03;;
34200;SDS011;20469;55.638;37.670;2023-11-19T09:30:16;10.32;;;5.32;;
34200;SDS011;20469;55.638;37.670;2023-11-19T09:32:44;10.43;;;5.68;;
34200;SDS011;20469;55.638;37.670;2023-11-19T09:35:12;12.30;;;6.00;;
34200;SDS011;20469;55.638;37.670;2023-11-19T09:37:43;9.95;;;6.03;;
34200;SDS011;20469;55.638;37.670;2023-11-19T09:40:10;10.32;;;5.95;;
34200;SDS011;20469;55.638;37.670;2023-11-19T09:42:44;10.43;;;5.50;;
34200;SDS011;20469;55.638;37.670;2023-11-19T09:45:14;10.13;;;5.60;;
34200;SDS011;20469;55.638;37.670;2023-11-19T09:47:43;11.73;;;6.25;;
34200;SDS011;20469;55.638;37.670;2023-11-19T09:50:18;12.13;;;5.53;;
34200;SDS011;20469;55.638;37.670;2023-11-19T09:52:47;9.63;;;6.38;;
34200;SDS011;20469;55.638;37.670;2023-11-19T09:55:14;21.77;;;6.85;;
34200;SDS011;20469;55.638;37.670;2023-11-19T09:57:42;12.20;;;6.15;;
34200;SDS011;20469;55.638;37.670;2023-11-19T10:00:11;11.20;;;5.18;;
34200;SDS011;20469;55.638;37.670;2023-11-19T10:02:42;10.82;;;5.68;;
34200;SDS011;20469;55.638;37.670;2023-11-19T10:05:14;10.85;;;6.03;;
34200;SDS011;20469;55.638;37.670;2023-11-19T10:07:42;18.25;;;6.60;;
34200;SDS011;20469;55.638;37.670;2023-11-19T10:10:11;9.38;;;5.57;;
34200;SDS011;20469;55.638;37.670;2023-11-19T10:12:45;9.15;;;5.38;;
34200;SDS011;20469;55.638;37.670;2023-11-19T10:15:20;10.95;;;5.72;;
34200;SDS011;20469;55.638;37.670;2023-11-19T10:17:52;11.18;;;6.30;;
34200;SDS011;20469;55.638;37.670;2023-11-19T10:20:20;15.65;;;6.00;;
34200;SDS011;20469;55.638;37.670;2023-11-19T10:22:47;10.25;;;5.65;;
34200;SDS011;20469;55.638;37.670;2023-11-19T10:25:21;10.43;;;5.50;;
34200;SDS011;20469;55.638;37.670;2023-11-19T10:27:50;11.60;;;5.53;;
34200;SDS011;20469;55.638;37.670;2023-11-19T10:30:20;10.85;;;5.93;;
34200;SDS011;20469;55.638;37.670;2023-11-19T10:35:36;9.27;;;4.93;;
34200;SDS011;20469;55.638;37.670;2023-11-19T10:38:13;10.10;;;6.00;;
34200;SDS011;20469;55.638;37.670;2023-11-19T10:40:42;11.23;;;5.45;;
34200;SDS011;20469;55.638;37.670;2023-11-19T10:43:09;10.32;;;5.60;;
34200;SDS011;20469;55.638;37.670;2023-11-19T10:45:37;13.60;;;6.03;;
34200;SDS011;20469;55.638;37.670;2023-11-19T10:48:06;39.50;;;22.15;;
34200;SDS011;20469;55.638;37.670;2023-11-19T10:50:34;10.93;;;6.50;;
34200;SDS011;20469;55.638;37.670;2023-11-19T10:53:03;11.15;;;5.65;;
34200;SDS011;20469;55.638;37.670;2023-11-19T10:55:35;11.52;;;5.75;;
34200;SDS011;20469;55.638;37.670;2023-11-19T10:58:05;10.52;;;6.43;;
34200;SDS011;20469;55.638;37.670;2023-11-19T11:00:34;13.52;;;6.05;;
34200;SDS011;20469;55.638;37.670;2023-11-19T11:03:14;13.35;;;6.72;;
34200;SDS011;20469;55.638;37.670;2023-11-19T11:05:43;13.48;;;6.50;;
34200;SDS011;20469;55.638;37.670;2023-11-19T11:08:11;12.10;;;6.03;;
34200;SDS011;20469;55.638;37.670;2023-11-19T11:10:52;10.70;;;6.75;;
34200;SDS011;20469;55.638;37.670;2023-11-19T11:13:24;13.57;;;7.93;;
34200;SDS011;20469;55.638;37.670;2023-11-19T11:15:55;17.10;;;8.25;;
34200;SDS011;20469;55.638;37.670;2023-11-19T11:18:25;12.93;;;7.57;;
34200;SDS011;20469;55.638;37.670;2023-11-19T11:20:55;11.30;;;7.32;;
34200;SDS011;20469;55.638;37.670;2023-11-19T11:26:09;12.65;;;8.32;;
34200;SDS011;20469;55.638;37.670;2023-11-19T11:31:18;14.18;;;8.18;;
34200;SDS011;20469;55.638;37.670;2023-11-19T11:36:47;12.90;;;7.95;;
34200;SDS011;20469;55.638;37.670;2023-11-19T11:39:17;14.68;;;8.32;;
34200;SDS011;20469;55.638;37.670;2023-11-19T11:41:54;14.48;;;8.70;;
34200;SDS011;20469;55.638;37.670;2023-11-19T11:47:22;16.73;;;8.95;;
34200;SDS011;20469;55.638;37.670;2023-11-19T11:49:49;15.90;;;9.27;;
34200;SDS011;20469;55.638;37.670;2023-11-19T11:52:19;14.75;;;9.25;;
34200;SDS011;20469;55.638;37.670;2023-11-19T11:54:47;16.45;;;9.30;;
34200;SDS011;20469;55.638;37.670;2023-11-19T11:57:14;15.27;;;9.60;;
34200;SDS011;20469;55.638;37.670;2023-11-19T12:02:13;17.80;;;9.43;;
34200;SDS011;20469;55.638;37.670;2023-11-19T12:04:43;14.75;;;8.90;;
34200;SDS011;20469;55.638;37.670;2023-11-19T12:09:52;14.40;;;10.18;;
34200;SDS011;20469;55.638;37.670;2023-11-19T12:12:23;18.83;;;10.13;;
34200;SDS011;20469;55.638;37.670;2023-11-19T12:20:05;16.08;;;10.35;;
34200;SDS011;20469;55.638;37.670;2023-11-19T12:22:37;19.25;;;10.40;;
34200;SDS011;20469;55.638;37.670;2023-11-19T12:25:05;18.40;;;10.32;;
34200;SDS011;20469;55.638;37.670;2023-11-19T12:27:33;15.63;;;9.80;;
34200;SDS011;20469;55.638;37.670;2023-11-19T12:30:02;17.70;;;9.98;;
34200;SDS011;20469;55.638;37.670;2023-11-19T12:32:42;15.05;;;9.23;;
34200;SDS011;20469;55.638;37.670;2023-11-19T12:35:11;14.02;;;9.02;;
34200;SDS011;20469;55.638;37.670;2023-11-19T12:37:43;12.50;;;8.48;;
34200;SDS011;20469;55.638;37.670;2023-11-19T12:42:46;16.00;;;9.95;;
34200;SDS011;20469;55.638;37.670;2023-11-19T12:45:14;15.05;;;8.98;;
34200;SDS011;20469;55.638;37.670;2023-11-19T12:47:43;15.60;;;9.43;;
34200;SDS011;20469;55.638;37.670;2023-11-19T12:50:11;17.27;;;9.75;;
34200;SDS011;20469;55.638;37.670;2023-11-19T12:52:38;16.08;;;8.60;;
34200;SDS011;20469;55.638;37.670;2023-11-19T12:55:25;16.73;;;10.55;;
34200;SDS011;20469;55.638;37.670;2023-11-19T12:57:56;18.10;;;9.75;;
34200;SDS011;20469;55.638;37.670;2023-11-19T13:00:26;16.15;;;9.60;;
34200;SDS011;20469;55.638;37.670;2023-11-19T13:02:57;14.40;;;9.20;;
34200;SDS011;20469;55.638;37.670;2023-11-19T13:05:32;16.10;;;10.20;;
34200;SDS011;20469;55.638;37.670;2023-11-19T13:08:02;16.80;;;9.77;;
34200;SDS011;20469;55.638;37.670;2023-11-19T13:10:32;16.88;;;9.85;;
34200;SDS011;20469;55.638;37.670;2023-11-19T13:13:04;15.82;;;10.45;;
34200;SDS011;20469;55.638;37.670;2023-11-19T13:15:32;18.40;;;11.20;;
34200;SDS011;20469;55.638;37.670;2023-11-19T13:18:00;19.13;;;10.90;;
34200;SDS011;20469;55.638;37.670;2023-11-19T13:20:29;17.48;;;11.00;;
34200;SDS011;20469;55.638;37.670;2023-11-19T13:23:01;21.55;;;11.23;;
34200;SDS011;20469;55.638;37.670;2023-11-19T13:25:29;11.70;;;8.38;;
34200;SDS011;20469;55.638;37.670;2023-11-19T13:27:57;19.17;;;11.23;;
34200;SDS011;20469;55.638;37.670;2023-11-19T13:30:25;19.20;;;11.50;;
34200;SDS011;20469;55.638;37.670;2023-11-19T13:32:54;20.67;;;12.13;;
34200;SDS011;20469;55.638;37.670;2023-11-19T13:35:22;19.83;;;11.55;;
34200;SDS011;20469;55.638;37.670;2023-11-19T13:37:49;22.67;;;12.50;;
34200;SDS011;20469;55.638;37.670;2023-11-19T13:40:18;20.35;;;12.68;;
34200;SDS011;20469;55.638;37.670;2023-11-19T13:42:49;19.15;;;12.77;;
34200;SDS011;20469;55.638;37.670;2023-11-19T13:45:16;20.30;;;12.40;;
34200;SDS011;20469;55.638;37.670;2023-11-19T13:47:45;28.17;;;14.23;;
34200;SDS011;20469;55.638;37.670;2023-11-19T13:50:14;18.90;;;13.13;;
34200;SDS011;20469;55.638;37.670;2023-11-19T13:52:43;23.50;;;13.27;;
34200;SDS011;20469;55.638;37.670;2023-11-19T13:55:12;20.17;;;13.40;;
34200;SDS011;20469;55.638;37.670;2023-11-19T13:57:41;21.95;;;12.93;;
34200;SDS011;20469;55.638;37.670;2023-11-19T14:00:09;21.88;;;13.05;;
34200;SDS011;20469;55.638;37.670;2023-11-19T14:02:43;24.98;;;13.27;;
34200;SDS011;20469;55.638;37.670;2023-11-19T14:05:11;32.45;;;19.70;;
34200;SDS011;20469;55.638;37.670;2023-11-19T14:07:39;21.42;;;13.88;;
34200;SDS011;20469;55.638;37.670;2023-11-19T14:10:07;26.17;;;13.65;;
34200;SDS011;20469;55.638;37.670;2023-11-19T14:12:38;23.80;;;14.65;;
34200;SDS011;20469;55.638;37.670;2023-11-19T14:15:07;27.27;;;14.38;;
34200;SDS011;20469;55.638;37.670;2023-11-19T14:17:39;24.63;;;16.35;;
34200;SDS011;20469;55.638;37.670;2023-11-19T14:20:07;25.50;;;16.00;;
34200;SDS011;20469;55.638;37.670;2023-11-19T14:22:40;29.95;;;16.98;;
34200;SDS011;20469;55.638;37.670;2023-11-19T14:25:08;24.52;;;15.40;;
34200;SDS011;20469;55.638;37.670;2023-11-19T14:27:39;26.92;;;15.38;;
34200;SDS011;20469;55.638;37.670;2023-11-19T14:30:08;22.58;;;14.30;;
34200;SDS011;20469;55.638;37.670;2023-11-19T14:32:42;21.45;;;14.00;;
34200;SDS011;20469;55.638;37.670;2023-11-19T14:35:12;24.45;;;14.93;;
34200;SDS011;20469;55.638;37.670;2023-11-19T14:37:40;23.75;;;14.52;;
34200;SDS011;20469;55.638;37.670;2023-11-19T14:40:08;26.27;;;14.63;;
34200;SDS011;20469;55.638;37.670;2023-11-19T14:42:38;23.70;;;15.18;;
34200;SDS011;20469;55.638;37.670;2023-11-19T14:45:06;26.70;;;15.10;;
34200;SDS011;20469;55.638;37.670;2023-11-19T14:47:34;23.77;;;14.63;;
34200;SDS011;20469;55.638;37.670;2023-11-19T14:50:02;27.33;;;16.58;;